Portada
METAR-TAF:

METAR-TAF

Aeropuertos :

Bou Saâda, Argelia

latitud: 35-20N, longitud: 004-12E, altitud: 461 m

Observación

El informe se hizo hace 5 horas y 52 minutos, a las 18:00 UTC
Viento 8 kt del oeste
Temperatura 11°C
Humedad 76%
Presión 1026 hPa
Visibilidad 10 km o más
Escasas nubes a una altura de 3000 ft

METAR: DAAD 151800Z 27008KT 9999 FEW030 11/07 Q1026

Hora: 00:52 (23:52 UTC)

Pronóstico

El informe se hizo hace 6 horas y 52 minutos, a las 17:00 UTC
Pronóstico válido del 15 a las 18 UTC al 16 a las 03 UTC
Viento 14 kt del noroeste
Visibilidad 10 km o más
Escasas nubes a una altura de 3000 ft
Probabilidad 30% :
Temporalmente
del 15 a las 18 UTC al 15 a las 21 UTC
Viento 15 kt del oeste-noroeste con ráfagas de 25 kt
Escasas nubes a una altura de 2600 ft, Cumulus congestus.

TAF: DAAD 151700Z 1518/1603 32014KT 9999 FEW030 PROB30 TEMPO 1518/1521 30015G25KT FEW026TCU

Observaciones y pronósticos meteorológicos de más de 4000 aeropuertos (mensajes METAR y TAF).

Los puntos amarillos y rojos representan las estaciones disponibles.

Ponga el ratón en el punto deseado para ver el nombre de la estación.

Haga clic para ver las observaciones y los pronósticos meteorológicos.

Para cambiar el mapa : haga clic en los botones verdes con una cruz de color negro para hacer un zoom, en el botón verde con un guión para alejar o en las flechas verdes para mapas adyacentes.


METAR-TAF: